createdAt,value
2023-03-03T07:22:37.103Z,30.05
2023-03-03T07:32:48.488Z,45.78
2023-03-03T07:35:51.002Z,31.70
2023-03-03T07:38:55.367Z,26.73
2023-03-03T07:42:08.647Z,24.08
2023-03-03T07:45:27.247Z,27.75
2023-03-03T07:48:35.812Z,28.60
2023-03-03T07:51:41.996Z,30.83
2023-03-03T07:54:47.631Z,23.75
2023-03-03T07:57:54.752Z,30.45
2023-03-03T08:01:27.078Z,24.73
2023-03-03T08:04:40.195Z,21.63
2023-03-03T08:07:42.820Z,20.60
2023-03-03T08:14:22.019Z,25.45
2023-03-03T08:17:26.348Z,28.67
2023-03-03T08:20:45.498Z,26.42
2023-03-03T08:27:17.251Z,27.75
2023-03-03T08:30:19.776Z,22.45
2023-03-03T08:33:22.405Z,22.17
2023-03-03T08:36:24.992Z,29.67
2023-03-03T08:39:27.478Z,26.80
2023-03-03T08:42:31.423Z,26.50
2023-03-03T08:45:34.853Z,23.48
2023-03-03T08:48:37.363Z,26.15
2023-03-03T08:51:40.341Z,25.98
2023-03-03T08:54:42.867Z,25.02
2023-03-03T08:57:47.036Z,23.27
2023-03-03T09:00:51.232Z,24.17
2023-03-03T09:03:54.646Z,22.35
2023-03-03T09:06:57.151Z,23.40
2023-03-03T09:09:59.708Z,26.15
2023-03-03T09:13:13.334Z,22.15
2023-03-03T09:16:17.071Z,27.27
2023-03-03T09:19:24.900Z,24.98
2023-03-03T09:22:28.948Z,25.33
2023-03-03T09:25:34.148Z,22.35
2023-03-03T09:28:38.500Z,25.60
2023-03-03T09:31:43.946Z,25.77
2023-03-03T09:34:47.975Z,26.02
2023-03-03T09:37:52.307Z,27.73
2023-03-03T09:41:16.476Z,28.42
2023-03-03T09:44:52.891Z,26.85
2023-03-03T09:48:14.789Z,31.40
2023-03-03T09:51:34.109Z,32.88
2023-03-03T09:54:54.377Z,30.98
2023-03-03T09:58:11.573Z,27.38
2023-03-03T10:01:41.272Z,26.80
2023-03-03T10:04:57.307Z,25.90
2023-03-03T10:08:12.342Z,28.35
2023-03-03T10:11:21.890Z,29.70
2023-03-03T10:14:46.090Z,29.70
2023-03-03T10:17:53.230Z,26.90
2023-03-03T10:21:05.675Z,26.92
2023-03-03T10:24:23.142Z,26.90
2023-03-03T10:27:40.922Z,26.50
2023-03-03T10:31:04.778Z,26.23
2023-03-03T10:34:25.205Z,26.45
2023-03-03T10:37:34.327Z,31.15
2023-03-03T10:40:42.057Z,27.13
2023-03-03T10:44:04.803Z,30.75
2023-03-03T10:47:30.582Z,30.15
2023-03-03T10:50:43.956Z,24.90
2023-03-03T10:53:55.517Z,26.33
2023-03-03T10:57:08.355Z,24.67
2023-03-03T11:00:21.844Z,21.45
2023-03-03T11:03:43.615Z,27.00
2023-03-03T11:06:52.531Z,22.17
2023-03-03T11:10:06.124Z,27.63
2023-03-03T11:13:16.577Z,20.92
2023-03-03T11:16:42.290Z,22.80
2023-03-03T11:20:02.732Z,23.42
2023-03-03T11:23:22.940Z,24.88
2023-03-03T11:26:35.298Z,23.88
2023-03-03T11:29:52.807Z,25.92
2023-03-03T11:33:05.081Z,25.33
2023-03-03T11:36:17.280Z,28.35
2023-03-03T11:39:24.212Z,25.05
2023-03-03T11:42:38.349Z,23.40
2023-03-03T11:45:44.798Z,32.13
2023-03-03T11:48:55.313Z,26.05
2023-03-03T11:52:07.904Z,26.98
2023-03-03T11:55:16.497Z,26.48
2023-03-03T11:58:23.765Z,26.13
2023-03-03T12:01:34.098Z,25.67
2023-03-03T12:04:40.351Z,28.60
2023-03-03T12:07:50.848Z,29.05
2023-03-03T12:11:06.168Z,25.23
2023-03-03T12:14:18.961Z,25.05
2023-03-03T12:17:40.632Z,25.92
2023-03-03T12:20:50.534Z,29.70
2023-03-03T12:24:09.001Z,27.83
2023-03-03T12:27:23.385Z,29.27
2023-03-03T12:30:42.805Z,27.70
2023-03-03T12:33:58.370Z,25.40
2023-03-03T12:37:14.886Z,29.90
2023-03-03T12:40:21.021Z,26.95
2023-03-03T12:43:40.720Z,32.17
2023-03-03T12:46:47.516Z,30.85
2023-03-03T12:50:08.323Z,32.15
2023-03-03T12:53:25.744Z,28.83
2023-03-03T12:56:36.397Z,29.30
2023-03-03T12:59:47.908Z,27.38
2023-03-03T13:03:00.950Z,32.13
2023-03-03T13:06:12.193Z,24.52
2023-03-03T13:09:30.067Z,30.50
2023-03-03T13:12:38.504Z,29.50
2023-03-03T13:15:55.508Z,27.02
2023-03-03T13:19:04.054Z,33.72
2023-03-03T13:22:14.418Z,27.88
2023-03-03T13:25:36.535Z,25.60
2023-03-03T13:28:42.458Z,27.75
2023-03-03T13:31:50.694Z,24.98
2023-03-03T13:35:02.386Z,23.33
2023-03-03T13:38:07.411Z,26.33
2023-03-03T13:41:22.090Z,22.73
2023-03-03T13:44:31.142Z,26.27
2023-03-03T13:47:44.635Z,23.23
2023-03-03T13:50:51.972Z,23.77
2023-03-03T13:54:03.521Z,23.20
2023-03-03T13:57:17.170Z,23.27
2023-03-03T14:00:31.935Z,25.33
2023-03-03T14:03:54.729Z,27.42
2023-03-03T14:07:04.303Z,21.55
2023-03-03T14:10:16.983Z,22.88
2023-03-03T14:13:26.049Z,22.08
2023-03-03T14:16:42.810Z,21.52
2023-03-03T14:19:49.762Z,19.30
2023-03-03T14:22:58.047Z,19.35
2023-03-03T14:26:08.901Z,20.55
2023-03-03T14:29:21.551Z,18.10
2023-03-03T14:32:39.471Z,20.15
2023-03-03T14:35:53.286Z,20.25
2023-03-03T14:38:55.914Z,18.25
2023-03-03T14:41:59.449Z,18.20
2023-03-03T14:45:04.668Z,17.85
2023-03-03T14:48:16.384Z,19.17
2023-03-03T14:51:25.938Z,16.58
2023-03-03T14:54:31.032Z,16.13
2023-03-03T14:57:46.581Z,15.70
2023-03-03T15:00:49.388Z,15.45
2023-03-03T15:04:00.550Z,15.20
2023-03-03T15:07:22.150Z,15.63
2023-03-03T15:10:30.878Z,16.38
2023-03-03T15:13:36.158Z,14.55
2023-03-03T15:16:40.144Z,17.52
2023-03-03T15:19:51.514Z,13.05
2023-03-03T15:23:06.222Z,14.90
2023-03-03T15:26:14.305Z,12.10
2023-03-03T15:29:23.499Z,17.92
2023-03-03T15:32:31.142Z,13.13
2023-03-03T15:35:48.696Z,13.90
2023-03-03T15:39:04.375Z,16.83
2023-03-03T15:42:14.768Z,17.85
2023-03-03T15:45:27.342Z,15.90
2023-03-03T15:48:42.119Z,17.63
2023-03-03T15:52:03.468Z,15.15
2023-03-03T15:55:28.953Z,19.73
2023-03-03T15:59:00.257Z,19.88
2023-03-03T16:02:12.885Z,19.83
2023-03-03T16:05:21.787Z,18.85
2023-03-03T16:08:30.767Z,17.33
2023-03-03T16:11:41.857Z,20.25
2023-03-03T16:15:00.127Z,23.02
2023-03-03T16:18:10.677Z,23.45
2023-03-03T16:21:24.514Z,22.30
2023-03-03T16:24:40.772Z,18.77
